Time;durP1;ratioP1;P1;durP2;ratioP2;P2;SDS_P1;SDS_P2;PMS_P1;PMS_P2;Temp;Humidity;BMP_temperature;BMP_pressure;BME280_temperature;BME280_humidity;BME280_pressure;Samples;Min_cycle;Max_cycle;Signal;HPM_P1;HPM_P2
2022/07/25 00:00:47;;;;;;;;;;;19.50;99.90;;;;;;4952703;28;20680;-76
2022/07/25 00:03:13;;;;;;;;;;;19.60;99.90;;;;;;4956914;28;19913;-76
2022/07/25 00:05:38;;;;;;;;;;;19.60;99.90;;;;;;4963301;28;19936;-76
2022/07/25 00:08:04;;;;;;;;;;;19.50;99.90;;;;;;4964871;28;19944;-76
2022/07/25 00:10:30;;;;;;;;;;;19.50;99.90;;;;;;4977143;28;20013;-76
2022/07/25 00:12:55;;;;;;;;;;;19.50;99.90;;;;;;4955357;28;19913;-76
2022/07/25 00:15:21;;;;;;;;;;;19.60;99.90;;;;;;4962444;28;19992;-76
2022/07/25 00:17:46;;;;;;;;;;;19.60;99.90;;;;;;4959004;28;20290;-76
2022/07/25 00:20:12;;;;;;;;;;;19.50;99.90;;;;;;4977381;28;19921;-76
2022/07/25 00:22:38;;;;;;;;;;;19.50;99.90;;;;;;4976650;28;20420;-76
2022/07/25 00:25:03;;;;;;;;;;;19.50;99.90;;;;;;4980497;28;20489;-76
2022/07/25 00:27:29;;;;;;;;;;;19.50;99.90;;;;;;4979336;28;20326;-77
2022/07/25 00:29:54;;;;;;;;;;;19.50;99.90;;;;;;4972808;28;19972;-75
2022/07/25 00:32:20;;;;;;;;;;;19.30;99.90;;;;;;4957085;28;19914;-76
2022/07/25 00:34:46;;;;;;;;;;;19.10;99.90;;;;;;4971007;28;20277;-76
2022/07/25 00:37:11;;;;;;;;;;;19.00;99.90;;;;;;4980506;28;19913;-76
2022/07/25 00:39:37;;;;;;;;;;;18.90;99.90;;;;;;4973952;28;19930;-76
2022/07/25 00:42:02;;;;;;;;;;;18.80;99.90;;;;;;4960093;28;20352;-75
2022/07/25 00:44:29;;;;;;;;;;;18.60;99.90;;;;;;4959434;28;20421;-76
2022/07/25 00:46:55;;;;;;;;;;;18.50;99.90;;;;;;4976243;28;19914;-76
2022/07/25 00:49:21;;;;;;;;;;;18.40;99.90;;;;;;4953962;28;19920;-76
2022/07/25 00:51:46;;;;;;;;;;;18.40;99.90;;;;;;4978047;28;19913;-76
2022/07/25 00:54:12;;;;;;;;;;;18.50;99.90;;;;;;4979735;28;19913;-77
2022/07/25 00:56:38;;;;;;;;;;;18.60;99.90;;;;;;4980008;28;20008;-75
2022/07/25 00:59:03;;;;;;;;;;;18.70;99.90;;;;;;4981715;28;19972;-76
2022/07/25 01:01:29;;;;;;;;;;;18.70;99.90;;;;;;4980493;28;19948;-76
2022/07/25 01:03:54;;;;;;;;;;;18.80;99.90;;;;;;4981387;28;19913;-75
2022/07/25 01:06:20;;;;;;;;;;;18.80;99.90;;;;;;4982364;28;19920;-76
2022/07/25 01:08:46;;;;;;;;;;;18.80;99.90;;;;;;4965268;28;19921;-76
2022/07/25 01:11:11;;;;;;;;;;;18.80;99.90;;;;;;4975120;28;19968;-75
2022/07/25 01:13:37;;;;;;;;;;;18.70;99.90;;;;;;4984023;28;20015;-76
2022/07/25 01:16:02;;;;;;;;;;;18.70;99.90;;;;;;5000068;28;19905;-76
2022/07/25 01:18:28;;;;;;;;;;;18.60;99.90;;;;;;4979937;28;19921;-75
2022/07/25 01:20:54;;;;;;;;;;;18.50;99.90;;;;;;4976533;28;20371;-76
2022/07/25 01:23:19;;;;;;;;;;;18.50;99.90;;;;;;4960301;28;19921;-76
2022/07/25 01:25:45;;;;;;;;;;;18.60;99.90;;;;;;4977659;28;19917;-76
2022/07/25 01:28:11;;;;;;;;;;;18.60;99.90;;;;;;4982841;28;20489;-76
2022/07/25 01:30:36;;;;;;;;;;;18.50;99.90;;;;;;4963810;28;19982;-76
2022/07/25 01:33:02;;;;;;;;;;;18.50;99.90;;;;;;4981902;28;19914;-76
2022/07/25 01:35:27;;;;;;;;;;;18.50;99.90;;;;;;4966026;28;19915;-75
2022/07/25 01:37:53;;;;;;;;;;;18.40;99.90;;;;;;4984094;28;19953;-75
2022/07/25 01:40:18;;;;;;;;;;;18.40;99.90;;;;;;4980557;28;20317;-76
2022/07/25 01:42:44;;;;;;;;;;;18.40;99.90;;;;;;4980941;28;19951;-76
2022/07/25 01:45:11;;;;;;;;;;;18.30;99.90;;;;;;4986807;28;19920;-76
2022/07/25 01:47:36;;;;;;;;;;;18.20;99.90;;;;;;4968171;28;20423;-77
2022/07/25 01:50:03;;;;;;;;;;;18.20;99.90;;;;;;4980945;28;19918;-74
2022/07/25 01:52:28;;;;;;;;;;;18.30;99.90;;;;;;4983454;28;20365;-76
2022/07/25 01:54:54;;;;;;;;;;;18.40;99.90;;;;;;4979508;28;19944;-75
2022/07/25 01:57:19;;;;;;;;;;;18.40;99.90;;;;;;4982200;28;20325;-75
2022/07/25 01:59:45;;;;;;;;;;;18.40;99.90;;;;;;4963967;28;20335;-76
2022/07/25 02:02:11;;;;;;;;;;;18.40;99.90;;;;;;4979811;28;19956;-75
2022/07/25 02:04:36;;;;;;;;;;;18.40;99.90;;;;;;4963656;28;20252;-75
2022/07/25 02:07:02;;;;;;;;;;;18.50;99.90;;;;;;4980061;28;20197;-76
2022/07/25 02:09:28;;;;;;;;;;;18.50;99.90;;;;;;4976544;28;19917;-75
2022/07/25 02:11:53;;;;;;;;;;;18.40;99.90;;;;;;4978971;28;20285;-76
2022/07/25 02:14:19;;;;;;;;;;;18.30;99.90;;;;;;4978588;28;19991;-75
2022/07/25 02:16:44;;;;;;;;;;;18.10;99.90;;;;;;4973615;28;19917;-76
2022/07/25 02:19:10;;;;;;;;;;;18.00;99.90;;;;;;4959042;28;19933;-75
2022/07/25 02:21:35;;;;;;;;;;;18.00;99.90;;;;;;4970096;28;19924;-75
2022/07/25 02:24:01;;;;;;;;;;;17.90;99.90;;;;;;4974176;28;20439;-76
2022/07/25 02:26:27;;;;;;;;;;;17.90;99.90;;;;;;4975626;28;19913;-76
2022/07/25 02:28:52;;;;;;;;;;;17.90;99.90;;;;;;4980671;28;19968;-76
2022/07/25 02:31:18;;;;;;;;;;;17.90;99.90;;;;;;4976642;28;19918;-75
2022/07/25 02:33:44;;;;;;;;;;;17.90;99.90;;;;;;4973123;28;20369;-75
2022/07/25 02:36:09;;;;;;;;;;;17.90;99.90;;;;;;4976998;28;20392;-75
2022/07/25 02:38:35;;;;;;;;;;;17.90;99.90;;;;;;4971789;28;19956;-75
2022/07/25 02:41:01;;;;;;;;;;;17.90;99.90;;;;;;4976982;28;20009;-75
2022/07/25 02:43:26;;;;;;;;;;;17.90;99.90;;;;;;4959977;28;19921;-75
2022/07/25 02:45:52;;;;;;;;;;;17.90;99.90;;;;;;4981206;28;19944;-75
2022/07/25 02:48:17;;;;;;;;;;;17.90;99.90;;;;;;4979012;28;19913;-75
2022/07/25 02:50:43;;;;;;;;;;;18.00;99.90;;;;;;4971136;28;20020;-75
2022/07/25 02:53:09;;;;;;;;;;;18.00;99.90;;;;;;4953844;28;20084;-75
2022/07/25 02:55:34;;;;;;;;;;;18.00;99.90;;;;;;4978421;28;20347;-76
2022/07/25 02:58:00;;;;;;;;;;;18.10;99.90;;;;;;4980204;28;19921;-76
2022/07/25 03:00:26;;;;;;;;;;;18.20;99.90;;;;;;4979276;28;20050;-76
2022/07/25 03:02:51;;;;;;;;;;;18.20;99.90;;;;;;4977545;28;19913;-77
2022/07/25 03:05:17;;;;;;;;;;;18.20;99.90;;;;;;4975890;28;19925;-75
2022/07/25 03:07:43;;;;;;;;;;;18.20;99.90;;;;;;4978979;28;19929;-76
2022/07/25 03:10:10;;;;;;;;;;;18.20;99.90;;;;;;4978355;28;19913;-77
2022/07/25 03:12:35;;;;;;;;;;;18.20;99.90;;;;;;4979761;28;20365;-75
2022/07/25 03:15:01;;;;;;;;;;;18.20;99.90;;;;;;4978178;28;19958;-76
2022/07/25 03:17:27;;;;;;;;;;;18.20;99.90;;;;;;4977582;28;20332;-77
2022/07/25 03:19:53;;;;;;;;;;;18.20;99.90;;;;;;4977195;28;20009;-76
2022/07/25 03:22:19;;;;;;;;;;;18.20;99.90;;;;;;4979519;28;19913;-75
2022/07/25 03:24:45;;;;;;;;;;;18.10;99.90;;;;;;4978493;28;19925;-76
2022/07/25 03:27:11;;;;;;;;;;;18.10;99.90;;;;;;4977899;28;19913;-76
2022/07/25 03:29:36;;;;;;;;;;;18.00;99.90;;;;;;4980247;28;19914;-76
2022/07/25 03:32:02;;;;;;;;;;;17.90;99.90;;;;;;4980646;28;19921;-76
2022/07/25 03:34:27;;;;;;;;;;;17.90;99.90;;;;;;4976545;28;19918;-76
2022/07/25 03:36:53;;;;;;;;;;;17.90;99.90;;;;;;4972466;28;19921;-75
2022/07/25 03:39:19;;;;;;;;;;;17.90;99.90;;;;;;4971147;28;20073;-76
2022/07/25 03:41:45;;;;;;;;;;;17.90;99.90;;;;;;4979519;28;20338;-75
2022/07/25 03:44:11;;;;;;;;;;;18.00;99.90;;;;;;4978851;28;19913;-76
2022/07/25 03:46:36;;;;;;;;;;;18.10;99.90;;;;;;4978390;28;20369;-75
2022/07/25 03:49:02;;;;;;;;;;;18.00;99.90;;;;;;4979296;28;19918;-75
2022/07/25 03:51:27;;;;;;;;;;;18.00;99.90;;;;;;4974141;28;19917;-75
2022/07/25 03:54:02;;;;;;;;;;;18.00;99.90;;;;;;4974565;28;19914;-76
2022/07/25 03:56:28;;;;;;;;;;;18.00;99.90;;;;;;4976280;28;19917;-75
2022/07/25 03:58:54;;;;;;;;;;;18.00;99.90;;;;;;4980375;28;20450;-76
2022/07/25 04:01:19;;;;;;;;;;;18.00;99.90;;;;;;4980698;28;19921;-76
2022/07/25 04:03:45;;;;;;;;;;;18.10;99.90;;;;;;4976555;28;20131;-75
2022/07/25 04:06:10;;;;;;;;;;;18.20;99.90;;;;;;4977514;28;19920;-75
2022/07/25 04:08:36;;;;;;;;;;;18.20;99.90;;;;;;4973120;28;19957;-75
2022/07/25 04:11:01;;;;;;;;;;;18.20;99.90;;;;;;4957962;28;20270;-76
2022/07/25 04:13:27;;;;;;;;;;;18.30;99.90;;;;;;4970469;28;19914;-75
2022/07/25 04:15:52;;;;;;;;;;;18.30;99.90;;;;;;4969917;28;19918;-75
2022/07/25 04:18:18;;;;;;;;;;;18.40;99.90;;;;;;4973430;28;19933;-75
2022/07/25 04:20:43;;;;;;;;;;;18.40;99.90;;;;;;4974691;28;20050;-76
2022/07/25 04:23:09;;;;;;;;;;;18.40;99.90;;;;;;4972077;28;19917;-75
2022/07/25 04:25:34;;;;;;;;;;;18.40;99.90;;;;;;4976393;28;20396;-75
2022/07/25 04:28:00;;;;;;;;;;;18.40;99.90;;;;;;4974637;28;20356;-75
2022/07/25 04:30:26;;;;;;;;;;;18.30;99.90;;;;;;4974155;28;19917;-76
2022/07/25 04:32:51;;;;;;;;;;;18.30;99.90;;;;;;4974029;28;19983;-75
2022/07/25 04:35:17;;;;;;;;;;;18.30;99.90;;;;;;4968631;28;19973;-75
2022/07/25 04:37:42;;;;;;;;;;;18.20;99.90;;;;;;4970641;28;19939;-75
2022/07/25 04:40:09;;;;;;;;;;;18.20;99.90;;;;;;4975755;28;19929;-75
2022/07/25 04:42:35;;;;;;;;;;;18.20;99.90;;;;;;4976444;28;19914;-75
2022/07/25 04:45:01;;;;;;;;;;;18.10;99.90;;;;;;4956396;28;19921;-75
2022/07/25 04:47:26;;;;;;;;;;;18.10;99.90;;;;;;4974089;28;20377;-76
2022/07/25 04:49:53;;;;;;;;;;;18.10;99.90;;;;;;4974438;28;20365;-76
2022/07/25 04:52:19;;;;;;;;;;;18.10;99.90;;;;;;4959265;28;19920;-75
2022/07/25 04:54:44;;;;;;;;;;;18.10;99.90;;;;;;4974957;28;19913;-75
2022/07/25 04:57:10;;;;;;;;;;;18.10;99.90;;;;;;4975691;28;19921;-75
2022/07/25 04:59:35;;;;;;;;;;;18.10;99.90;;;;;;4976320;28;19921;-75
2022/07/25 05:02:01;;;;;;;;;;;18.20;99.90;;;;;;4972591;28;20415;-74
2022/07/25 05:04:27;;;;;;;;;;;18.10;99.90;;;;;;4970049;28;19914;-74
2022/07/25 05:06:53;;;;;;;;;;;18.20;99.90;;;;;;4973663;28;20000;-73
2022/07/25 05:09:18;;;;;;;;;;;18.20;99.90;;;;;;4975161;28;19922;-74
2022/07/25 05:11:44;;;;;;;;;;;18.20;99.90;;;;;;4974739;28;20467;-74
2022/07/25 05:14:09;;;;;;;;;;;18.30;99.90;;;;;;4967189;28;20028;-74
2022/07/25 05:16:35;;;;;;;;;;;18.30;99.90;;;;;;4952667;28;19921;-76
2022/07/25 05:19:01;;;;;;;;;;;18.30;99.90;;;;;;4977709;28;20015;-75
2022/07/25 05:21:26;;;;;;;;;;;18.30;99.90;;;;;;4979371;28;19914;-75
2022/07/25 05:23:52;;;;;;;;;;;18.30;99.90;;;;;;4978266;28;20262;-75
2022/07/25 05:26:17;;;;;;;;;;;18.30;99.90;;;;;;4977137;28;20357;-75
2022/07/25 05:28:43;;;;;;;;;;;18.40;99.90;;;;;;4977816;28;20020;-76
2022/07/25 05:31:08;;;;;;;;;;;18.50;99.90;;;;;;4975971;28;19987;-75
2022/07/25 05:33:34;;;;;;;;;;;18.60;99.90;;;;;;4978066;28;19921;-75
2022/07/25 05:36:02;;;;;;;;;;;18.50;99.90;;;;;;4972913;28;19918;-75
2022/07/25 05:38:27;;;;;;;;;;;18.50;99.90;;;;;;4975469;28;20333;-75
2022/07/25 05:40:53;;;;;;;;;;;18.40;99.90;;;;;;4960293;28;19924;-75
2022/07/25 05:43:19;;;;;;;;;;;18.40;99.90;;;;;;4977673;28;19917;-75
2022/07/25 05:45:46;;;;;;;;;;;18.30;99.90;;;;;;4978366;28;19922;-78
2022/07/25 05:48:12;;;;;;;;;;;18.30;99.90;;;;;;4978465;28;19914;-75
2022/07/25 05:50:37;;;;;;;;;;;18.50;99.90;;;;;;4978764;28;19921;-75
2022/07/25 05:53:03;;;;;;;;;;;18.60;99.90;;;;;;4980493;28;19960;-75
2022/07/25 05:55:28;;;;;;;;;;;19.00;99.90;;;;;;4974687;28;19913;-76
2022/07/25 05:57:54;;;;;;;;;;;19.20;99.90;;;;;;4980475;28;19914;-76
2022/07/25 06:00:19;;;;;;;;;;;19.40;99.90;;;;;;4956743;28;20010;-75
2022/07/25 06:02:45;;;;;;;;;;;19.40;99.90;;;;;;4963137;28;20005;-75
2022/07/25 06:05:10;;;;;;;;;;;19.40;99.90;;;;;;4971268;28;19973;-75
2022/07/25 06:07:36;;;;;;;;;;;19.60;99.90;;;;;;4971684;28;19947;-76
2022/07/25 06:10:02;;;;;;;;;;;19.70;99.90;;;;;;4977418;28;19914;-76
2022/07/25 06:12:27;;;;;;;;;;;19.90;99.90;;;;;;4976905;28;19944;-75
2022/07/25 06:14:53;;;;;;;;;;;20.10;99.90;;;;;;4972132;28;19921;-76
2022/07/25 06:17:18;;;;;;;;;;;20.20;99.90;;;;;;4964432;28;19943;-76
2022/07/25 06:19:44;;;;;;;;;;;20.30;99.90;;;;;;4965834;28;19926;-77
2022/07/25 06:22:10;;;;;;;;;;;20.30;99.90;;;;;;4963218;28;19956;-76
2022/07/25 06:24:35;;;;;;;;;;;20.30;99.90;;;;;;4966995;28;19914;-75
2022/07/25 06:27:01;;;;;;;;;;;20.20;99.90;;;;;;4968177;28;21423;-77
2022/07/25 06:29:27;;;;;;;;;;;20.10;99.90;;;;;;4967366;28;19921;-75
2022/07/25 06:31:52;;;;;;;;;;;20.00;99.90;;;;;;4959007;28;20777;-76
2022/07/25 06:34:18;;;;;;;;;;;20.20;99.90;;;;;;4959703;28;19918;-75
2022/07/25 06:36:43;;;;;;;;;;;20.50;99.90;;;;;;4962963;28;19918;-76
2022/07/25 06:39:09;;;;;;;;;;;20.70;99.90;;;;;;4973338;28;19922;-76
2022/07/25 06:41:36;;;;;;;;;;;20.70;99.90;;;;;;4978099;28;19959;-75
2022/07/25 06:44:02;;;;;;;;;;;20.70;99.90;;;;;;4978761;28;20032;-76
2022/07/25 06:46:30;;;;;;;;;;;20.70;99.90;;;;;;4978841;28;19976;-75
2022/07/25 06:48:56;;;;;;;;;;;20.70;99.90;;;;;;4974092;28;19913;-75
2022/07/25 06:51:22;;;;;;;;;;;20.90;99.90;;;;;;4959700;28;19917;-74
2022/07/25 06:53:48;;;;;;;;;;;20.90;99.90;;;;;;4975615;28;20579;-74
2022/07/25 06:56:13;;;;;;;;;;;21.10;99.90;;;;;;4978783;28;20020;-75
2022/07/25 06:58:39;;;;;;;;;;;21.10;99.90;;;;;;4980002;28;20939;-73
2022/07/25 07:01:05;;;;;;;;;;;21.10;99.90;;;;;;4965972;28;19940;-75
2022/07/25 07:03:31;;;;;;;;;;;21.20;99.90;;;;;;4962268;28;20114;-74
2022/07/25 07:05:56;;;;;;;;;;;21.40;99.90;;;;;;4960521;28;19914;-74
2022/07/25 07:08:22;;;;;;;;;;;21.60;99.90;;;;;;4960217;28;20297;-74
2022/07/25 07:10:47;;;;;;;;;;;21.50;99.90;;;;;;4963201;28;20005;-74
2022/07/25 07:13:17;;;;;;;;;;;21.50;99.90;;;;;;4964438;28;19925;-74
2022/07/25 07:15:48;;;;;;;;;;;21.40;99.90;;;;;;4965749;28;19918;-74
2022/07/25 07:18:18;;;;;;;;;;;21.40;99.90;;;;;;4962763;28;19965;-74
2022/07/25 07:20:44;;;;;;;;;;;21.20;99.90;;;;;;4964238;28;19925;-74
2022/07/25 07:23:09;;;;;;;;;;;20.90;99.90;;;;;;4962818;28;21077;-75
2022/07/25 07:25:35;;;;;;;;;;;20.70;99.90;;;;;;4946317;28;20046;-74
2022/07/25 07:28:01;;;;;;;;;;;20.60;99.90;;;;;;4966858;28;19972;-74
2022/07/25 07:30:26;;;;;;;;;;;20.40;99.90;;;;;;4971684;28;19944;-75
2022/07/25 07:32:52;;;;;;;;;;;20.20;99.90;;;;;;4964384;28;19914;-74
2022/07/25 07:35:18;;;;;;;;;;;20.10;99.90;;;;;;4955857;28;19940;-74
2022/07/25 07:37:44;;;;;;;;;;;20.00;99.90;;;;;;4971699;28;20015;-74
2022/07/25 07:40:10;;;;;;;;;;;20.00;99.90;;;;;;4968528;28;20652;-74
2022/07/25 07:42:37;;;;;;;;;;;20.00;99.90;;;;;;4948792;28;20290;-74
2022/07/25 07:45:02;;;;;;;;;;;20.00;99.90;;;;;;4970399;28;19961;-75
2022/07/25 07:47:28;;;;;;;;;;;20.00;99.90;;;;;;4955928;28;20455;-74
2022/07/25 07:49:53;;;;;;;;;;;20.10;99.90;;;;;;4954218;28;19924;-74
2022/07/25 07:52:19;;;;;;;;;;;20.40;99.90;;;;;;4965031;28;19914;-75
2022/07/25 07:57:28;;;;;;;;;;;21.00;99.90;;;;;;4968970;28;19936;-74
2022/07/25 07:59:54;;;;;;;;;;;21.40;99.90;;;;;;4944273;28;19926;-74
2022/07/25 08:02:19;;;;;;;;;;;21.60;99.90;;;;;;4971743;28;20324;-74
2022/07/25 08:04:45;;;;;;;;;;;21.60;99.90;;;;;;4951758;28;19938;-74
2022/07/25 08:07:11;;;;;;;;;;;21.80;99.90;;;;;;4962292;28;20024;-75
2022/07/25 08:09:36;;;;;;;;;;;25.10;99.90;;;;;;4969124;28;19960;-74
2022/07/25 08:12:02;;;;;;;;;;;24.90;99.90;;;;;;4971738;28;19918;-75
2022/07/25 08:14:27;;;;;;;;;;;26.50;99.90;;;;;;4972511;28;19909;-75
2022/07/25 08:16:55;;;;;;;;;;;26.20;98.60;;;;;;4969557;28;19914;-75
2022/07/25 08:19:21;;;;;;;;;;;27.10;98.40;;;;;;4956873;28;19932;-75
2022/07/25 08:21:48;;;;;;;;;;;28.40;92.80;;;;;;4971293;28;20147;-75
2022/07/25 08:24:13;;;;;;;;;;;29.80;85.10;;;;;;4965260;28;19913;-74
2022/07/25 08:26:39;;;;;;;2.67;0.70;;;32.00;68.20;;;;;;4967481;28;19914;-76
2022/07/25 08:29:05;;;;;;;2.25;0.73;;;33.50;61.80;;;;;;4968969;28;20371;-75
2022/07/25 08:31:30;;;;;;;4.25;0.93;;;34.40;56.70;;;;;;4950963;28;20129;-76
2022/07/25 08:33:56;;;;;;;2.08;0.55;;;32.90;53.50;;;;;;4950993;28;20654;-75
2022/07/25 08:36:22;;;;;;;4.47;0.65;;;31.90;58.10;;;;;;4963087;28;20022;-74
2022/07/25 08:38:47;;;;;;;4.65;1.45;;;29.70;62.90;;;;;;4966997;23;20073;-72
2022/07/25 08:41:13;;;;;;;5.10;0.80;;;29.60;67.60;;;;;;4991007;28;20140;-72
2022/07/25 08:43:39;;;;;;;4.90;1.00;;;29.00;74.90;;;;;;4993872;28;20452;-74
2022/07/25 08:46:05;;;;;;;5.22;1.13;;;27.20;79.50;;;;;;4971070;28;20081;-74
2022/07/25 08:48:31;;;;;;;3.65;0.70;;;26.20;92.00;;;;;;4992775;28;20111;-74
2022/07/25 08:50:58;;;;;;;4.70;0.98;;;27.50;95.40;;;;;;4993699;28;20164;-74
2022/07/25 08:53:25;;;;;;;3.65;1.05;;;31.00;82.80;;;;;;4640405;28;10000322;-74
2022/07/25 08:55:51;;;;;;;9.53;1.70;;;33.60;61.90;;;;;;4973251;28;20184;-72
2022/07/25 08:58:17;;;;;;;5.45;0.70;;;34.50;55.50;;;;;;4984166;28;20125;-74
2022/07/25 09:00:43;;;;;;;4.70;0.90;;;32.80;57.80;;;;;;4973884;23;20110;-74
2022/07/25 09:03:09;;;;;;;5.70;0.70;;;31.10;59.10;;;;;;4955445;28;20516;-74
2022/07/25 09:05:36;;;;;;;5.97;0.93;;;28.80;68.40;;;;;;4963090;28;20469;-73
2022/07/25 09:08:11;;;;;;;4.03;1.00;;;27.20;80.30;;;;;;4968715;28;20044;-73
2022/07/25 09:10:38;;;;;;;8.40;0.98;;;25.80;91.40;;;;;;4968282;28;20107;-73
2022/07/25 09:13:06;;;;;;;;;;;26.10;93.20;;;;;;4974910;28;20026;-73
2022/07/25 09:15:38;;;;;;;;;;;25.50;97.90;;;;;;4967076;28;19918;-74
2022/07/25 09:18:05;;;;;;;;;;;24.90;99.70;;;;;;4944849;28;19913;-73
2022/07/25 09:20:46;;;;;;;;;;;24.40;99.90;;;;;;4975643;28;19926;-73
2022/07/25 09:23:14;;;;;;;;;;;23.90;99.90;;;;;;4964993;28;19924;-73
2022/07/25 09:25:40;;;;;;;;;;;23.20;99.90;;;;;;4974593;28;19928;-73
2022/07/25 09:28:10;;;;;;;;;;;23.00;99.90;;;;;;4958485;28;19913;-73
2022/07/25 09:30:37;;;;;;;;;;;22.90;99.90;;;;;;4951709;28;20000;-73
2022/07/25 09:33:02;;;;;;;;;;;22.70;99.90;;;;;;4976861;28;19941;-73
2022/07/25 09:35:29;;;;;;;;;;;23.10;99.90;;;;;;4954804;28;19921;-73
2022/07/25 09:38:05;;;;;;;;;;;24.30;99.90;;;;;;4977818;28;19937;-73
2022/07/25 09:40:30;;;;;;;;;;;24.70;99.90;;;;;;4951475;28;19921;-74
2022/07/25 09:42:56;;;;;;;;;;;24.40;99.90;;;;;;4976635;28;20491;-73
2022/07/25 09:45:21;;;;;;;;;;;25.00;99.90;;;;;;4973000;28;19972;-73
2022/07/25 09:47:57;;;;;;;;;;;25.70;99.90;;;;;;4987851;28;19922;-73
2022/07/25 09:50:24;;;;;;;;;;;26.40;99.30;;;;;;4981983;28;19913;-73
2022/07/25 09:52:51;;;;;;;;;;;25.70;97.80;;;;;;4977385;28;20430;-73
2022/07/25 09:55:16;;;;;;;;;;;25.40;98.80;;;;;;4964687;28;19913;-73
2022/07/25 09:57:43;;;;;;;;;;;24.90;99.90;;;;;;4976946;28;19925;-73
2022/07/25 10:00:09;;;;;;;;;;;24.00;99.90;;;;;;4976948;28;20024;-74
2022/07/25 10:02:38;;;;;;;;;;;23.60;99.90;;;;;;4967798;28;20036;-73
2022/07/25 10:07:53;;;;;;;;;;;23.70;99.90;;;;;;4907684;23;10001876;-76
2022/07/25 10:10:26;;;;;;;;;;;24.00;99.90;;;;;;4971200;28;20631;-74
2022/07/25 10:12:59;;;;;;;;;;;24.60;99.90;;;;;;4972701;28;20016;-77
2022/07/25 10:15:25;;;;;;;;;;;24.60;99.90;;;;;;4977452;28;19914;-78
2022/07/25 10:18:00;;;;;;;;;;;24.50;99.90;;;;;;4980453;28;19914;-77
2022/07/25 10:20:27;;;;;;;;;;;24.20;99.90;;;;;;4959756;28;20659;-77
2022/07/25 10:22:52;;;;;;;;;;;23.80;99.90;;;;;;4974617;28;19971;-77
2022/07/25 10:25:18;;;;;;;;;;;24.50;99.90;;;;;;4974864;28;19917;-78
2022/07/25 10:27:47;;;;;;;;;;;25.70;99.90;;;;;;4956193;28;19961;-76
2022/07/25 10:30:25;;;;;;;;;;;26.20;99.90;;;;;;4974634;28;19914;-74
2022/07/25 10:32:58;;;;;;;;;;;26.10;98.10;;;;;;4978525;28;19918;-76
2022/07/25 10:35:24;;;;;;;;;;;26.30;95.90;;;;;;4979199;28;19918;-77
2022/07/25 10:37:51;;;;;;;;;;;25.70;99.30;;;;;;4981066;28;20140;-78
2022/07/25 10:40:25;;;;;;;;;;;24.80;99.90;;;;;;4978096;28;20512;-78
2022/07/25 10:42:55;;;;;;;;;;;24.00;99.90;;;;;;4973904;28;19913;-78
2022/07/25 10:45:24;;;;;;;;;;;22.90;99.90;;;;;;4971031;28;19914;-77
2022/07/25 10:47:52;;;;;;;;;;;22.30;99.90;;;;;;4974368;28;19918;-77
2022/07/25 10:50:20;;;;;;;;;;;22.10;99.90;;;;;;4971852;28;20352;-78
2022/07/25 10:52:56;;;;;;;;;;;21.80;99.90;;;;;;4972999;28;20396;-77
2022/07/25 10:55:22;;;;;;;;;;;21.70;99.90;;;;;;4978243;28;19947;-77
2022/07/25 10:57:58;;;;;;;;;;;21.70;99.90;;;;;;4973628;28;19930;-75
2022/07/25 11:00:24;;;;;;;;;;;21.30;99.90;;;;;;4976328;28;20304;-77
2022/07/25 11:02:49;;;;;;;;;;;21.00;99.90;;;;;;4972745;28;19914;-77
2022/07/25 11:05:15;;;;;;;;;;;20.70;99.90;;;;;;4968250;28;20028;-75
2022/07/25 11:07:48;;;;;;;;;;;20.50;99.90;;;;;;4971156;28;19921;-76
2022/07/25 11:10:14;;;;;;;;;;;20.90;99.90;;;;;;4952773;28;19937;-76
2022/07/25 11:12:43;;;;;;;;;;;21.30;99.90;;;;;;4973388;28;19968;-77
2022/07/25 11:15:09;;;;;;;;;;;21.40;99.90;;;;;;4979875;28;20008;-77
2022/07/25 11:17:34;;;;;;;;;;;21.40;99.90;;;;;;4974408;28;20575;-76
2022/07/25 11:20:07;;;;;;;;;;;21.50;99.90;;;;;;4975751;28;19972;-76
2022/07/25 11:22:34;;;;;;;;;;;21.70;99.90;;;;;;4980079;28;19940;-77
2022/07/25 11:25:00;;;;;;;;;;;22.20;99.90;;;;;;4977012;28;19963;-77
2022/07/25 11:27:26;;;;;;;;;;;22.40;99.90;;;;;;4976655;28;19921;-78
2022/07/25 11:29:52;;;;;;;;;;;22.40;99.90;;;;;;4976463;28;19924;-76
2022/07/25 11:32:18;;;;;;;;;;;22.60;99.90;;;;;;4983398;28;19918;-78
2022/07/25 11:34:47;;;;;;;;;;;22.70;99.90;;;;;;4974944;28;20293;-78
2022/07/25 11:37:13;;;;;;;;;;;22.70;99.90;;;;;;4980380;28;20004;-77
2022/07/25 11:39:40;;;;;;;;;;;22.40;99.90;;;;;;4957367;28;19917;-76
2022/07/25 11:42:06;;;;;;;;;;;22.00;99.90;;;;;;4970790;28;19964;-76
2022/07/25 11:44:32;;;;;;;;;;;21.50;99.90;;;;;;4971117;28;19914;-75
2022/07/25 11:46:58;;;;;;;;;;;21.10;99.90;;;;;;4972747;28;19924;-76
2022/07/25 11:49:23;;;;;;;;;;;21.10;99.90;;;;;;4970726;28;20020;-76
2022/07/25 11:51:49;;;;;;;;;;;21.60;99.90;;;;;;4977278;28;20089;-76
2022/07/25 11:54:15;;;;;;;;;;;22.10;99.90;;;;;;4980991;28;19953;-76
2022/07/25 11:56:42;;;;;;;;;;;22.30;99.90;;;;;;4978170;28;20387;-76
2022/07/25 11:59:08;;;;;;;;;;;22.60;99.90;;;;;;4977038;28;20362;-75
2022/07/25 12:01:35;;;;;;;;;;;22.70;99.90;;;;;;4975307;28;19918;-75
2022/07/25 12:04:17;;;;;;;;;;;22.80;99.90;;;;;;4964111;28;19957;-76
2022/07/25 12:06:47;;;;;;;;;;;23.00;99.90;;;;;;4980434;28;19914;-76
2022/07/25 12:09:16;;;;;;;;;;;23.10;99.90;;;;;;4976589;28;19914;-76
2022/07/25 12:11:43;;;;;;;;;;;23.20;99.90;;;;;;4972161;28;20277;-77
2022/07/25 12:14:08;;;;;;;;;;;23.00;99.90;;;;;;4970125;28;19913;-77
2022/07/25 12:16:35;;;;;;;;;;;22.70;99.90;;;;;;4977548;28;19939;-77
2022/07/25 12:19:00;;;;;;;;;;;22.70;99.90;;;;;;4977237;28;20431;-76
2022/07/25 12:21:26;;;;;;;;;;;22.60;99.90;;;;;;4977182;28;19920;-76
2022/07/25 12:23:52;;;;;;;;;;;22.60;99.90;;;;;;4979337;28;19920;-75
2022/07/25 12:26:18;;;;;;;;;;;22.20;99.90;;;;;;4970147;28;19917;-77
2022/07/25 12:28:44;;;;;;;;;;;21.70;99.90;;;;;;4950741;28;19918;-76
2022/07/25 12:31:09;;;;;;;;;;;21.40;99.90;;;;;;4966829;28;19917;-74
2022/07/25 12:33:35;;;;;;;;;;;21.30;99.90;;;;;;4967365;28;20345;-74
2022/07/25 12:36:01;;;;;;;;;;;21.00;99.90;;;;;;4956701;28;19969;-76
2022/07/25 12:38:27;;;;;;;;;;;20.70;99.90;;;;;;4969817;28;19996;-76
2022/07/25 12:40:53;;;;;;;;;;;20.70;99.90;;;;;;4971561;28;19921;-74
2022/07/25 12:43:18;;;;;;;;;;;21.00;99.90;;;;;;4953923;28;20033;-73
2022/07/25 12:45:44;;;;;;;;;;;21.80;99.90;;;;;;4979333;28;19917;-74
2022/07/25 12:48:11;;;;;;;;;;;22.40;99.90;;;;;;4979231;28;19921;-77
2022/07/25 12:50:37;;;;;;;;;;;23.00;99.90;;;;;;4980463;28;19987;-77
2022/07/25 12:53:03;;;;;;;;;;;23.90;99.90;;;;;;4981522;28;20413;-76
2022/07/25 12:55:28;;;;;;;;;;;25.30;99.90;;;;;;4968085;28;19948;-76
2022/07/25 12:57:54;;;;;;;;;;;26.00;99.90;;;;;;4952150;28;19992;-74
2022/07/25 13:00:21;;;;;;;;;;;26.30;99.90;;;;;;4979206;28;19936;-74
2022/07/25 13:02:47;;;;;;;;;;;26.00;99.90;;;;;;4980953;28;19947;-77
2022/07/25 13:05:12;;;;;;;;;;;25.10;99.90;;;;;;4980569;28;19914;-75
2022/07/25 13:07:38;;;;;;;;;;;24.30;99.90;;;;;;4979147;28;19937;-74
2022/07/25 13:10:05;;;;;;;;;;;23.40;99.90;;;;;;4978353;28;19918;-77
2022/07/25 13:12:30;;;;;;;;;;;22.80;99.90;;;;;;4947701;28;20340;-76
2022/07/25 13:14:56;;;;;;;;;;;22.40;99.90;;;;;;4957813;28;20721;-76
2022/07/25 13:17:21;;;;;;;;;;;21.90;99.90;;;;;;4960550;28;19914;-76
2022/07/25 13:19:47;;;;;;;;;;;21.80;99.90;;;;;;4974048;28;20535;-76
2022/07/25 13:22:13;;;;;;;;;;;21.60;99.90;;;;;;4977156;28;20007;-76
2022/07/25 13:24:38;;;;;;;;;;;21.40;99.90;;;;;;4964467;28;20385;-76
2022/07/25 13:27:04;;;;;;;;;;;21.00;99.90;;;;;;4957991;28;19968;-77
2022/07/25 13:29:30;;;;;;;;;;;20.50;99.90;;;;;;4978867;28;19920;-75
2022/07/25 13:31:55;;;;;;;;;;;20.30;99.90;;;;;;4973709;28;20396;-77
2022/07/25 13:34:21;;;;;;;;;;;20.40;99.90;;;;;;4978154;28;19916;-77
2022/07/25 13:36:46;;;;;;;;;;;21.00;99.90;;;;;;4966205;28;19914;-76
2022/07/25 13:39:12;;;;;;;;;;;21.50;99.90;;;;;;4975537;28;19917;-75
2022/07/25 13:41:38;;;;;;;;;;;22.20;99.90;;;;;;4969967;28;19913;-75
2022/07/25 13:44:03;;;;;;;;;;;22.80;99.90;;;;;;4956305;28;19917;-75
2022/07/25 13:46:30;;;;;;;;;;;23.20;99.90;;;;;;4957133;28;19914;-75
2022/07/25 13:48:55;;;;;;;;;;;23.20;99.90;;;;;;4965120;28;19910;-74
2022/07/25 13:51:21;;;;;;;;;;;23.30;99.90;;;;;;4964633;28;19928;-74
2022/07/25 13:53:46;;;;;;;;;;;23.60;99.90;;;;;;4978826;28;20032;-75
2022/07/25 13:56:12;;;;;;;;;;;23.80;99.90;;;;;;4971974;28;20737;-75
2022/07/25 13:58:38;;;;;;;;;;;24.00;99.90;;;;;;4957730;28;20277;-75
2022/07/25 14:01:04;;;;;;;;;;;24.20;99.90;;;;;;4949040;28;20024;-74
2022/07/25 14:03:29;;;;;;;;;;;24.50;99.90;;;;;;4971073;28;20420;-75
2022/07/25 14:05:55;;;;;;;;;;;24.70;99.90;;;;;;4979280;28;19972;-74
2022/07/25 14:08:21;;;;;;;;;;;25.20;99.90;;;;;;4980094;28;19929;-75
2022/07/25 14:10:47;;;;;;;;;;;25.30;99.90;;;;;;4980965;28;19928;-75